sensor_id;sensor_type;location;lat;lon;timestamp;P1;durP1;ratioP1;P2;durP2;ratioP2
68800;SDS011;55784;50.734;7.086;2023-08-20T00:01:57;16.60;;;9.27;;
68800;SDS011;55784;50.734;7.086;2023-08-20T00:04:26;17.13;;;9.30;;
68800;SDS011;55784;50.734;7.086;2023-08-20T00:06:53;16.75;;;8.98;;
68800;SDS011;55784;50.734;7.086;2023-08-20T00:09:18;15.43;;;9.63;;
68800;SDS011;55784;50.734;7.086;2023-08-20T00:11:44;17.20;;;9.50;;
68800;SDS011;55784;50.734;7.086;2023-08-20T00:14:14;17.17;;;9.47;;
68800;SDS011;55784;50.734;7.086;2023-08-20T00:16:41;14.98;;;9.20;;
68800;SDS011;55784;50.734;7.086;2023-08-20T00:19:07;15.30;;;9.40;;
68800;SDS011;55784;50.734;7.086;2023-08-20T00:21:33;15.73;;;9.85;;
68800;SDS011;55784;50.734;7.086;2023-08-20T00:23:59;15.33;;;9.33;;
68800;SDS011;55784;50.734;7.086;2023-08-20T00:26:24;14.60;;;8.85;;
68800;SDS011;55784;50.734;7.086;2023-08-20T00:28:50;19.43;;;9.83;;
68800;SDS011;55784;50.734;7.086;2023-08-20T00:31:15;15.77;;;8.03;;
68800;SDS011;55784;50.734;7.086;2023-08-20T00:33:40;12.87;;;7.70;;
68800;SDS011;55784;50.734;7.086;2023-08-20T00:36:06;14.50;;;8.73;;
68800;SDS011;55784;50.734;7.086;2023-08-20T00:38:31;14.03;;;7.63;;
68800;SDS011;55784;50.734;7.086;2023-08-20T00:40:56;13.27;;;7.43;;
68800;SDS011;55784;50.734;7.086;2023-08-20T00:43:22;13.30;;;7.93;;
68800;SDS011;55784;50.734;7.086;2023-08-20T00:45:47;14.47;;;7.73;;
68800;SDS011;55784;50.734;7.086;2023-08-20T00:48:13;14.35;;;7.50;;
68800;SDS011;55784;50.734;7.086;2023-08-20T00:50:39;13.23;;;7.70;;
68800;SDS011;55784;50.734;7.086;2023-08-20T00:53:05;14.27;;;7.80;;
68800;SDS011;55784;50.734;7.086;2023-08-20T00:55:31;12.48;;;7.57;;
68800;SDS011;55784;50.734;7.086;2023-08-20T00:57:57;12.27;;;7.40;;
68800;SDS011;55784;50.734;7.086;2023-08-20T01:00:23;13.45;;;7.57;;
68800;SDS011;55784;50.734;7.086;2023-08-20T01:02:49;12.57;;;7.60;;
68800;SDS011;55784;50.734;7.086;2023-08-20T01:05:14;13.48;;;7.55;;
68800;SDS011;55784;50.734;7.086;2023-08-20T01:10:29;13.48;;;7.70;;
68800;SDS011;55784;50.734;7.086;2023-08-20T01:12:55;12.63;;;7.25;;
68800;SDS011;55784;50.734;7.086;2023-08-20T01:15:21;12.30;;;7.33;;
68800;SDS011;55784;50.734;7.086;2023-08-20T01:17:48;13.00;;;7.50;;
68800;SDS011;55784;50.734;7.086;2023-08-20T01:20:13;13.93;;;7.80;;
68800;SDS011;55784;50.734;7.086;2023-08-20T01:22:47;16.20;;;7.93;;
68800;SDS011;55784;50.734;7.086;2023-08-20T01:30:41;13.63;;;7.55;;
68800;SDS011;55784;50.734;7.086;2023-08-20T01:33:09;13.03;;;7.60;;
68800;SDS011;55784;50.734;7.086;2023-08-20T01:35:36;14.43;;;7.57;;
68800;SDS011;55784;50.734;7.086;2023-08-20T01:38:01;13.93;;;7.90;;
68800;SDS011;55784;50.734;7.086;2023-08-20T01:40:26;13.10;;;7.37;;
68800;SDS011;55784;50.734;7.086;2023-08-20T01:42:52;13.37;;;7.90;;
68800;SDS011;55784;50.734;7.086;2023-08-20T01:45:17;16.23;;;7.77;;
68800;SDS011;55784;50.734;7.086;2023-08-20T01:47:43;12.20;;;7.25;;
68800;SDS011;55784;50.734;7.086;2023-08-20T01:50:09;14.30;;;8.20;;
68800;SDS011;55784;50.734;7.086;2023-08-20T01:52:34;13.57;;;7.57;;
68800;SDS011;55784;50.734;7.086;2023-08-20T01:54:59;13.77;;;8.00;;
68800;SDS011;55784;50.734;7.086;2023-08-20T01:57:25;13.63;;;7.75;;
68800;SDS011;55784;50.734;7.086;2023-08-20T01:59:50;13.00;;;7.40;;
68800;SDS011;55784;50.734;7.086;2023-08-20T02:02:16;13.87;;;8.00;;
68800;SDS011;55784;50.734;7.086;2023-08-20T02:04:41;13.03;;;7.53;;
68800;SDS011;55784;50.734;7.086;2023-08-20T02:07:06;14.33;;;7.77;;
68800;SDS011;55784;50.734;7.086;2023-08-20T02:09:32;15.02;;;7.70;;
68800;SDS011;55784;50.734;7.086;2023-08-20T02:11:57;13.60;;;8.00;;
68800;SDS011;55784;50.734;7.086;2023-08-20T02:14:22;14.97;;;8.33;;
68800;SDS011;55784;50.734;7.086;2023-08-20T02:16:48;13.83;;;7.80;;
68800;SDS011;55784;50.734;7.086;2023-08-20T02:19:13;13.90;;;8.30;;
68800;SDS011;55784;50.734;7.086;2023-08-20T02:21:39;15.13;;;8.43;;
68800;SDS011;55784;50.734;7.086;2023-08-20T02:24:04;14.70;;;8.50;;
68800;SDS011;55784;50.734;7.086;2023-08-20T02:26:30;16.27;;;8.80;;
68800;SDS011;55784;50.734;7.086;2023-08-20T02:28:55;15.30;;;8.07;;
68800;SDS011;55784;50.734;7.086;2023-08-20T02:31:21;14.93;;;7.97;;
68800;SDS011;55784;50.734;7.086;2023-08-20T02:33:46;13.90;;;8.10;;
68800;SDS011;55784;50.734;7.086;2023-08-20T02:36:12;14.83;;;8.17;;
68800;SDS011;55784;50.734;7.086;2023-08-20T02:38:37;14.03;;;7.60;;
68800;SDS011;55784;50.734;7.086;2023-08-20T02:41:02;16.47;;;7.80;;
68800;SDS011;55784;50.734;7.086;2023-08-20T02:43:28;13.13;;;7.40;;
68800;SDS011;55784;50.734;7.086;2023-08-20T02:45:54;14.18;;;8.20;;
68800;SDS011;55784;50.734;7.086;2023-08-20T02:48:19;13.93;;;7.70;;
68800;SDS011;55784;50.734;7.086;2023-08-20T02:50:45;15.70;;;8.30;;
68800;SDS011;55784;50.734;7.086;2023-08-20T02:53:11;13.80;;;8.30;;
68800;SDS011;55784;50.734;7.086;2023-08-20T02:55:36;12.73;;;7.30;;
68800;SDS011;55784;50.734;7.086;2023-08-20T02:58:01;14.70;;;7.80;;
68800;SDS011;55784;50.734;7.086;2023-08-20T03:00:29;16.42;;;8.38;;
68800;SDS011;55784;50.734;7.086;2023-08-20T03:02:54;14.70;;;7.93;;
68800;SDS011;55784;50.734;7.086;2023-08-20T03:05:20;15.80;;;8.07;;
68800;SDS011;55784;50.734;7.086;2023-08-20T03:07:45;14.50;;;7.77;;
68800;SDS011;55784;50.734;7.086;2023-08-20T03:10:11;15.30;;;7.57;;
68800;SDS011;55784;50.734;7.086;2023-08-20T03:12:36;12.67;;;7.37;;
68800;SDS011;55784;50.734;7.086;2023-08-20T03:15:02;13.20;;;7.57;;
68800;SDS011;55784;50.734;7.086;2023-08-20T03:17:28;12.52;;;6.82;;
68800;SDS011;55784;50.734;7.086;2023-08-20T03:19:56;13.60;;;7.47;;
68800;SDS011;55784;50.734;7.086;2023-08-20T03:22:23;12.95;;;7.35;;
68800;SDS011;55784;50.734;7.086;2023-08-20T03:24:49;12.77;;;7.40;;
68800;SDS011;55784;50.734;7.086;2023-08-20T03:27:15;13.53;;;7.13;;
68800;SDS011;55784;50.734;7.086;2023-08-20T03:29:41;13.32;;;7.68;;
68800;SDS011;55784;50.734;7.086;2023-08-20T03:32:06;13.23;;;7.50;;
68800;SDS011;55784;50.734;7.086;2023-08-20T03:34:32;14.47;;;7.40;;
68800;SDS011;55784;50.734;7.086;2023-08-20T03:36:57;13.40;;;7.10;;
68800;SDS011;55784;50.734;7.086;2023-08-20T03:39:22;14.03;;;7.30;;
68800;SDS011;55784;50.734;7.086;2023-08-20T03:41:47;13.97;;;7.53;;
68800;SDS011;55784;50.734;7.086;2023-08-20T03:44:14;12.82;;;7.68;;
68800;SDS011;55784;50.734;7.086;2023-08-20T03:46:39;15.03;;;7.80;;
68800;SDS011;55784;50.734;7.086;2023-08-20T03:49:05;14.00;;;8.00;;
68800;SDS011;55784;50.734;7.086;2023-08-20T03:51:30;14.40;;;7.90;;
68800;SDS011;55784;50.734;7.086;2023-08-20T03:53:55;13.60;;;7.60;;
68800;SDS011;55784;50.734;7.086;2023-08-20T03:56:21;13.97;;;7.47;;
68800;SDS011;55784;50.734;7.086;2023-08-20T03:58:46;13.27;;;7.53;;
68800;SDS011;55784;50.734;7.086;2023-08-20T04:01:12;14.50;;;7.60;;
68800;SDS011;55784;50.734;7.086;2023-08-20T04:03:37;13.43;;;7.40;;
68800;SDS011;55784;50.734;7.086;2023-08-20T04:06:02;14.00;;;7.70;;
68800;SDS011;55784;50.734;7.086;2023-08-20T04:08:28;15.17;;;7.67;;
68800;SDS011;55784;50.734;7.086;2023-08-20T04:10:54;14.02;;;7.45;;
68800;SDS011;55784;50.734;7.086;2023-08-20T04:13:19;12.90;;;7.50;;
68800;SDS011;55784;50.734;7.086;2023-08-20T04:15:45;12.83;;;7.00;;
68800;SDS011;55784;50.734;7.086;2023-08-20T04:18:10;14.83;;;6.97;;
68800;SDS011;55784;50.734;7.086;2023-08-20T04:20:36;14.82;;;7.45;;
68800;SDS011;55784;50.734;7.086;2023-08-20T04:23:01;14.93;;;7.30;;
68800;SDS011;55784;50.734;7.086;2023-08-20T04:25:26;13.63;;;6.87;;
68800;SDS011;55784;50.734;7.086;2023-08-20T04:27:52;13.23;;;6.90;;
68800;SDS011;55784;50.734;7.086;2023-08-20T04:30:17;14.17;;;6.63;;
68800;SDS011;55784;50.734;7.086;2023-08-20T04:32:42;14.50;;;7.07;;
68800;SDS011;55784;50.734;7.086;2023-08-20T04:35:08;13.43;;;7.07;;
68800;SDS011;55784;50.734;7.086;2023-08-20T04:37:35;13.02;;;7.18;;
68800;SDS011;55784;50.734;7.086;2023-08-20T04:40:00;11.87;;;6.80;;
68800;SDS011;55784;50.734;7.086;2023-08-20T04:42:25;13.27;;;6.90;;
68800;SDS011;55784;50.734;7.086;2023-08-20T04:44:51;12.87;;;6.93;;
68800;SDS011;55784;50.734;7.086;2023-08-20T04:47:16;12.07;;;6.53;;
68800;SDS011;55784;50.734;7.086;2023-08-20T04:49:41;13.40;;;6.80;;
68800;SDS011;55784;50.734;7.086;2023-08-20T04:52:07;12.77;;;6.67;;
68800;SDS011;55784;50.734;7.086;2023-08-20T04:54:32;12.37;;;6.13;;
68800;SDS011;55784;50.734;7.086;2023-08-20T04:56:57;12.33;;;6.33;;
68800;SDS011;55784;50.734;7.086;2023-08-20T04:59:23;12.00;;;6.30;;
68800;SDS011;55784;50.734;7.086;2023-08-20T05:01:48;11.17;;;6.23;;
68800;SDS011;55784;50.734;7.086;2023-08-20T05:04:14;12.13;;;6.50;;
68800;SDS011;55784;50.734;7.086;2023-08-20T05:06:39;11.43;;;6.57;;
68800;SDS011;55784;50.734;7.086;2023-08-20T05:09:04;12.43;;;6.93;;
68800;SDS011;55784;50.734;7.086;2023-08-20T05:11:30;13.17;;;6.20;;
68800;SDS011;55784;50.734;7.086;2023-08-20T05:13:57;11.82;;;6.28;;
68800;SDS011;55784;50.734;7.086;2023-08-20T05:16:23;11.40;;;6.37;;
68800;SDS011;55784;50.734;7.086;2023-08-20T05:18:48;11.60;;;6.20;;
68800;SDS011;55784;50.734;7.086;2023-08-20T05:21:14;10.40;;;6.25;;
68800;SDS011;55784;50.734;7.086;2023-08-20T05:23:39;10.40;;;6.10;;
68800;SDS011;55784;50.734;7.086;2023-08-20T05:26:06;12.73;;;5.95;;
68800;SDS011;55784;50.734;7.086;2023-08-20T05:28:34;11.33;;;6.00;;
68800;SDS011;55784;50.734;7.086;2023-08-20T05:30:59;12.48;;;6.20;;
68800;SDS011;55784;50.734;7.086;2023-08-20T05:33:25;11.80;;;6.17;;
68800;SDS011;55784;50.734;7.086;2023-08-20T05:35:51;10.23;;;5.65;;
68800;SDS011;55784;50.734;7.086;2023-08-20T05:38:16;11.43;;;6.07;;
68800;SDS011;55784;50.734;7.086;2023-08-20T05:40:42;14.60;;;6.20;;
68800;SDS011;55784;50.734;7.086;2023-08-20T05:43:07;11.05;;;5.72;;
68800;SDS011;55784;50.734;7.086;2023-08-20T05:45:33;12.53;;;6.00;;
68800;SDS011;55784;50.734;7.086;2023-08-20T05:47:58;12.30;;;5.88;;
68800;SDS011;55784;50.734;7.086;2023-08-20T05:50:24;10.83;;;5.87;;
68800;SDS011;55784;50.734;7.086;2023-08-20T05:52:49;10.17;;;5.90;;
68800;SDS011;55784;50.734;7.086;2023-08-20T05:55:15;11.47;;;6.00;;
68800;SDS011;55784;50.734;7.086;2023-08-20T05:57:40;10.43;;;5.87;;
68800;SDS011;55784;50.734;7.086;2023-08-20T06:00:07;12.75;;;5.85;;
68800;SDS011;55784;50.734;7.086;2023-08-20T06:02:34;10.55;;;5.82;;
68800;SDS011;55784;50.734;7.086;2023-08-20T06:04:59;11.03;;;5.40;;
68800;SDS011;55784;50.734;7.086;2023-08-20T06:07:25;10.63;;;5.50;;
68800;SDS011;55784;50.734;7.086;2023-08-20T06:09:50;11.40;;;6.00;;
68800;SDS011;55784;50.734;7.086;2023-08-20T06:12:16;10.33;;;5.50;;
68800;SDS011;55784;50.734;7.086;2023-08-20T06:14:42;10.73;;;5.55;;
68800;SDS011;55784;50.734;7.086;2023-08-20T06:17:07;13.37;;;6.00;;
68800;SDS011;55784;50.734;7.086;2023-08-20T06:19:33;10.17;;;5.80;;
68800;SDS011;55784;50.734;7.086;2023-08-20T06:21:58;11.35;;;6.05;;
68800;SDS011;55784;50.734;7.086;2023-08-20T06:24:24;11.10;;;5.70;;
68800;SDS011;55784;50.734;7.086;2023-08-20T06:26:50;12.43;;;6.73;;
68800;SDS011;55784;50.734;7.086;2023-08-20T06:29:16;12.68;;;7.05;;
68800;SDS011;55784;50.734;7.086;2023-08-20T06:31:41;13.30;;;7.00;;
68800;SDS011;55784;50.734;7.086;2023-08-20T06:34:06;12.47;;;6.50;;
68800;SDS011;55784;50.734;7.086;2023-08-20T06:36:32;12.20;;;6.97;;
68800;SDS011;55784;50.734;7.086;2023-08-20T06:38:57;12.73;;;6.50;;
68800;SDS011;55784;50.734;7.086;2023-08-20T06:41:23;14.20;;;7.47;;
68800;SDS011;55784;50.734;7.086;2023-08-20T06:43:48;13.67;;;7.57;;
68800;SDS011;55784;50.734;7.086;2023-08-20T06:46:14;13.30;;;7.87;;
68800;SDS011;55784;50.734;7.086;2023-08-20T06:48:48;15.52;;;8.07;;
68800;SDS011;55784;50.734;7.086;2023-08-20T06:51:14;20.25;;;10.20;;
68800;SDS011;55784;50.734;7.086;2023-08-20T06:53:40;14.10;;;8.02;;
68800;SDS011;55784;50.734;7.086;2023-08-20T06:56:10;15.43;;;8.67;;
68800;SDS011;55784;50.734;7.086;2023-08-20T06:58:36;17.33;;;9.60;;
68800;SDS011;55784;50.734;7.086;2023-08-20T07:01:03;17.00;;;8.93;;
68800;SDS011;55784;50.734;7.086;2023-08-20T07:03:34;16.65;;;9.32;;
68800;SDS011;55784;50.734;7.086;2023-08-20T07:06:04;17.00;;;9.15;;
68800;SDS011;55784;50.734;7.086;2023-08-20T07:08:34;14.63;;;7.97;;
68800;SDS011;55784;50.734;7.086;2023-08-20T07:11:00;17.75;;;9.68;;
68800;SDS011;55784;50.734;7.086;2023-08-20T07:13:26;15.85;;;8.68;;
68800;SDS011;55784;50.734;7.086;2023-08-20T07:15:51;17.23;;;9.20;;
68800;SDS011;55784;50.734;7.086;2023-08-20T07:18:17;18.17;;;8.40;;
68800;SDS011;55784;50.734;7.086;2023-08-20T07:20:42;14.40;;;8.17;;
68800;SDS011;55784;50.734;7.086;2023-08-20T07:23:08;15.95;;;8.93;;
68800;SDS011;55784;50.734;7.086;2023-08-20T07:25:37;13.85;;;8.20;;
68800;SDS011;55784;50.734;7.086;2023-08-20T07:28:03;16.17;;;9.18;;
68800;SDS011;55784;50.734;7.086;2023-08-20T07:30:30;16.53;;;9.20;;
68800;SDS011;55784;50.734;7.086;2023-08-20T07:32:55;17.85;;;9.57;;
68800;SDS011;55784;50.734;7.086;2023-08-20T07:35:20;17.93;;;11.20;;
68800;SDS011;55784;50.734;7.086;2023-08-20T07:37:46;21.33;;;11.30;;
68800;SDS011;55784;50.734;7.086;2023-08-20T07:40:12;18.98;;;11.63;;
68800;SDS011;55784;50.734;7.086;2023-08-20T07:42:39;19.43;;;11.83;;
68800;SDS011;55784;50.734;7.086;2023-08-20T07:45:05;18.75;;;11.70;;
68800;SDS011;55784;50.734;7.086;2023-08-20T07:47:32;18.58;;;11.48;;
68800;SDS011;55784;50.734;7.086;2023-08-20T07:49:57;17.37;;;10.70;;
68800;SDS011;55784;50.734;7.086;2023-08-20T07:52:23;18.08;;;10.38;;
68800;SDS011;55784;50.734;7.086;2023-08-20T07:54:48;17.03;;;9.93;;
68800;SDS011;55784;50.734;7.086;2023-08-20T07:57:13;17.67;;;9.87;;
68800;SDS011;55784;50.734;7.086;2023-08-20T07:59:39;16.63;;;10.37;;
68800;SDS011;55784;50.734;7.086;2023-08-20T08:02:05;18.80;;;9.63;;
68800;SDS011;55784;50.734;7.086;2023-08-20T08:04:30;18.20;;;9.95;;
68800;SDS011;55784;50.734;7.086;2023-08-20T08:06:56;17.00;;;10.67;;
68800;SDS011;55784;50.734;7.086;2023-08-20T08:09:28;18.33;;;10.32;;
68800;SDS011;55784;50.734;7.086;2023-08-20T08:11:55;17.20;;;9.87;;
68800;SDS011;55784;50.734;7.086;2023-08-20T08:14:21;16.90;;;10.30;;
68800;SDS011;55784;50.734;7.086;2023-08-20T08:16:46;17.33;;;10.30;;
68800;SDS011;55784;50.734;7.086;2023-08-20T08:19:12;17.52;;;10.43;;
68800;SDS011;55784;50.734;7.086;2023-08-20T08:21:38;16.50;;;9.40;;
68800;SDS011;55784;50.734;7.086;2023-08-20T08:24:04;16.83;;;8.95;;
68800;SDS011;55784;50.734;7.086;2023-08-20T08:26:30;17.52;;;9.43;;
68800;SDS011;55784;50.734;7.086;2023-08-20T08:28:56;15.70;;;8.87;;
68800;SDS011;55784;50.734;7.086;2023-08-20T08:31:21;16.17;;;9.50;;
68800;SDS011;55784;50.734;7.086;2023-08-20T08:33:46;13.77;;;7.90;;
68800;SDS011;55784;50.734;7.086;2023-08-20T08:36:12;14.93;;;7.60;;
68800;SDS011;55784;50.734;7.086;2023-08-20T08:38:38;15.67;;;8.17;;
68800;SDS011;55784;50.734;7.086;2023-08-20T08:41:03;13.47;;;7.73;;
68800;SDS011;55784;50.734;7.086;2023-08-20T08:43:34;12.60;;;7.63;;
68800;SDS011;55784;50.734;7.086;2023-08-20T08:46:00;14.53;;;8.27;;
68800;SDS011;55784;50.734;7.086;2023-08-20T08:48:28;13.63;;;7.13;;
68800;SDS011;55784;50.734;7.086;2023-08-20T08:50:53;14.00;;;7.90;;
68800;SDS011;55784;50.734;7.086;2023-08-20T08:53:19;14.32;;;8.30;;
68800;SDS011;55784;50.734;7.086;2023-08-20T08:55:46;12.43;;;6.20;;
68800;SDS011;55784;50.734;7.086;2023-08-20T08:58:14;10.68;;;6.00;;
68800;SDS011;55784;50.734;7.086;2023-08-20T09:00:40;12.07;;;6.10;;
68800;SDS011;55784;50.734;7.086;2023-08-20T09:03:06;11.10;;;6.43;;
68800;SDS011;55784;50.734;7.086;2023-08-20T09:05:31;11.80;;;6.80;;
68800;SDS011;55784;50.734;7.086;2023-08-20T09:07:56;12.50;;;7.20;;
68800;SDS011;55784;50.734;7.086;2023-08-20T09:10:25;12.05;;;7.18;;
68800;SDS011;55784;50.734;7.086;2023-08-20T09:12:51;9.05;;;5.28;;
68800;SDS011;55784;50.734;7.086;2023-08-20T09:15:20;11.63;;;7.65;;
68800;SDS011;55784;50.734;7.086;2023-08-20T09:17:46;9.97;;;5.13;;
68800;SDS011;55784;50.734;7.086;2023-08-20T09:20:11;8.93;;;4.73;;
68800;SDS011;55784;50.734;7.086;2023-08-20T09:22:37;8.23;;;4.45;;
68800;SDS011;55784;50.734;7.086;2023-08-20T09:25:02;9.10;;;5.43;;
68800;SDS011;55784;50.734;7.086;2023-08-20T09:27:28;9.37;;;5.47;;
68800;SDS011;55784;50.734;7.086;2023-08-20T09:29:54;9.20;;;5.10;;
68800;SDS011;55784;50.734;7.086;2023-08-20T09:32:21;9.37;;;5.37;;
68800;SDS011;55784;50.734;7.086;2023-08-20T09:34:48;10.50;;;5.50;;
68800;SDS011;55784;50.734;7.086;2023-08-20T09:37:15;10.43;;;5.93;;
68800;SDS011;55784;50.734;7.086;2023-08-20T09:39:42;8.93;;;5.25;;
68800;SDS011;55784;50.734;7.086;2023-08-20T09:42:09;9.30;;;5.68;;
68800;SDS011;55784;50.734;7.086;2023-08-20T09:44:35;9.67;;;5.30;;
68800;SDS011;55784;50.734;7.086;2023-08-20T09:47:06;9.95;;;5.10;;
68800;SDS011;55784;50.734;7.086;2023-08-20T09:49:42;9.70;;;5.82;;
68800;SDS011;55784;50.734;7.086;2023-08-20T09:52:09;10.05;;;5.65;;
68800;SDS011;55784;50.734;7.086;2023-08-20T09:59:53;9.63;;;5.68;;
68800;SDS011;55784;50.734;7.086;2023-08-20T10:02:20;13.90;;;8.13;;
68800;SDS011;55784;50.734;7.086;2023-08-20T10:04:45;13.43;;;7.50;;
68800;SDS011;55784;50.734;7.086;2023-08-20T10:07:14;12.60;;;6.30;;
68800;SDS011;55784;50.734;7.086;2023-08-20T10:09:39;11.18;;;6.10;;
68800;SDS011;55784;50.734;7.086;2023-08-20T10:12:06;10.10;;;5.67;;
68800;SDS011;55784;50.734;7.086;2023-08-20T10:14:32;10.93;;;5.65;;
68800;SDS011;55784;50.734;7.086;2023-08-20T10:16:57;10.80;;;5.40;;
68800;SDS011;55784;50.734;7.086;2023-08-20T10:19:23;10.57;;;5.57;;
68800;SDS011;55784;50.734;7.086;2023-08-20T10:21:52;10.93;;;5.30;;
68800;SDS011;55784;50.734;7.086;2023-08-20T10:24:17;9.38;;;5.75;;
68800;SDS011;55784;50.734;7.086;2023-08-20T10:26:47;9.25;;;5.65;;
68800;SDS011;55784;50.734;7.086;2023-08-20T10:32:10;10.25;;;6.10;;
68800;SDS011;55784;50.734;7.086;2023-08-20T10:34:37;10.07;;;5.60;;
68800;SDS011;55784;50.734;7.086;2023-08-20T10:37:13;10.43;;;5.60;;
68800;SDS011;55784;50.734;7.086;2023-08-20T10:39:38;9.48;;;5.55;;
68800;SDS011;55784;50.734;7.086;2023-08-20T10:42:23;10.33;;;6.00;;
68800;SDS011;55784;50.734;7.086;2023-08-20T10:47:36;10.05;;;5.93;;
68800;SDS011;55784;50.734;7.086;2023-08-20T10:50:09;9.07;;;5.70;;
68800;SDS011;55784;50.734;7.086;2023-08-20T10:52:46;9.37;;;5.63;;
68800;SDS011;55784;50.734;7.086;2023-08-20T10:55:13;11.05;;;5.47;;
68800;SDS011;55784;50.734;7.086;2023-08-20T10:57:39;9.85;;;5.50;;
68800;SDS011;55784;50.734;7.086;2023-08-20T11:00:05;12.23;;;6.05;;
68800;SDS011;55784;50.734;7.086;2023-08-20T11:02:35;14.00;;;6.50;;
68800;SDS011;55784;50.734;7.086;2023-08-20T11:05:02;10.40;;;6.07;;
68800;SDS011;55784;50.734;7.086;2023-08-20T11:07:29;10.45;;;5.82;;
68800;SDS011;55784;50.734;7.086;2023-08-20T11:09:56;10.00;;;5.82;;
68800;SDS011;55784;50.734;7.086;2023-08-20T11:12:22;10.95;;;5.82;;
68800;SDS011;55784;50.734;7.086;2023-08-20T11:14:47;9.70;;;6.23;;
68800;SDS011;55784;50.734;7.086;2023-08-20T11:17:13;10.53;;;6.27;;
68800;SDS011;55784;50.734;7.086;2023-08-20T11:19:38;10.15;;;6.32;;
68800;SDS011;55784;50.734;7.086;2023-08-20T11:22:05;10.30;;;5.67;;
68800;SDS011;55784;50.734;7.086;2023-08-20T11:24:30;10.00;;;6.05;;
68800;SDS011;55784;50.734;7.086;2023-08-20T11:27:26;13.23;;;7.80;;
68800;SDS011;55784;50.734;7.086;2023-08-20T11:29:52;11.63;;;6.28;;
68800;SDS011;55784;50.734;7.086;2023-08-20T11:32:21;11.35;;;6.30;;
68800;SDS011;55784;50.734;7.086;2023-08-20T11:34:48;9.82;;;6.15;;
68800;SDS011;55784;50.734;7.086;2023-08-20T11:37:15;11.60;;;6.40;;
68800;SDS011;55784;50.734;7.086;2023-08-20T11:39:43;9.95;;;6.18;;
68800;SDS011;55784;50.734;7.086;2023-08-20T11:42:09;8.93;;;6.03;;
68800;SDS011;55784;50.734;7.086;2023-08-20T11:44:42;10.93;;;7.00;;
68800;SDS011;55784;50.734;7.086;2023-08-20T11:47:14;10.75;;;7.10;;
68800;SDS011;55784;50.734;7.086;2023-08-20T11:49:46;10.18;;;7.07;;
68800;SDS011;55784;50.734;7.086;2023-08-20T11:52:12;11.60;;;7.33;;
68800;SDS011;55784;50.734;7.086;2023-08-20T11:54:38;11.57;;;7.40;;
68800;SDS011;55784;50.734;7.086;2023-08-20T11:57:04;12.20;;;6.80;;
68800;SDS011;55784;50.734;7.086;2023-08-20T11:59:30;9.60;;;6.15;;
68800;SDS011;55784;50.734;7.086;2023-08-20T12:01:56;11.27;;;7.27;;
68800;SDS011;55784;50.734;7.086;2023-08-20T12:04:27;11.45;;;6.68;;
68800;SDS011;55784;50.734;7.086;2023-08-20T12:07:03;11.30;;;6.73;;
68800;SDS011;55784;50.734;7.086;2023-08-20T12:09:38;11.63;;;6.70;;
68800;SDS011;55784;50.734;7.086;2023-08-20T12:12:05;10.50;;;7.03;;
68800;SDS011;55784;50.734;7.086;2023-08-20T12:14:31;10.68;;;6.97;;
68800;SDS011;55784;50.734;7.086;2023-08-20T12:16:56;10.33;;;6.80;;
68800;SDS011;55784;50.734;7.086;2023-08-20T12:19:22;11.60;;;7.15;;
68800;SDS011;55784;50.734;7.086;2023-08-20T12:21:48;12.67;;;8.00;;
68800;SDS011;55784;50.734;7.086;2023-08-20T12:24:14;12.65;;;7.15;;
68800;SDS011;55784;50.734;7.086;2023-08-20T12:26:39;10.80;;;7.50;;
68800;SDS011;55784;50.734;7.086;2023-08-20T12:29:05;14.13;;;7.50;;
68800;SDS011;55784;50.734;7.086;2023-08-20T12:31:34;11.48;;;7.40;;
68800;SDS011;55784;50.734;7.086;2023-08-20T12:34:00;11.68;;;7.38;;
68800;SDS011;55784;50.734;7.086;2023-08-20T12:36:26;11.80;;;7.83;;
68800;SDS011;55784;50.734;7.086;2023-08-20T12:38:54;10.93;;;7.78;;
68800;SDS011;55784;50.734;7.086;2023-08-20T12:41:20;11.13;;;6.97;;
68800;SDS011;55784;50.734;7.086;2023-08-20T12:43:45;10.10;;;6.50;;
68800;SDS011;55784;50.734;7.086;2023-08-20T12:46:11;10.73;;;6.80;;
68800;SDS011;55784;50.734;7.086;2023-08-20T12:48:37;10.00;;;6.95;;
68800;SDS011;55784;50.734;7.086;2023-08-20T12:51:03;11.27;;;7.53;;
68800;SDS011;55784;50.734;7.086;2023-08-20T12:53:29;10.53;;;7.20;;
68800;SDS011;55784;50.734;7.086;2023-08-20T12:55:54;11.40;;;7.20;;
68800;SDS011;55784;50.734;7.086;2023-08-20T12:58:19;11.00;;;7.30;;
68800;SDS011;55784;50.734;7.086;2023-08-20T13:00:54;11.85;;;9.20;;
68800;SDS011;55784;50.734;7.086;2023-08-20T13:03:30;12.82;;;8.63;;
68800;SDS011;55784;50.734;7.086;2023-08-20T13:05:55;13.47;;;9.10;;
68800;SDS011;55784;50.734;7.086;2023-08-20T13:08:22;12.88;;;8.90;;
68800;SDS011;55784;50.734;7.086;2023-08-20T13:10:55;12.52;;;9.68;;
68800;SDS011;55784;50.734;7.086;2023-08-20T13:13:22;12.13;;;9.07;;
68800;SDS011;55784;50.734;7.086;2023-08-20T13:15:51;11.90;;;9.30;;
68800;SDS011;55784;50.734;7.086;2023-08-20T13:18:17;12.65;;;9.05;;
68800;SDS011;55784;50.734;7.086;2023-08-20T13:20:43;12.20;;;9.18;;
68800;SDS011;55784;50.734;7.086;2023-08-20T13:23:09;13.73;;;9.83;;
68800;SDS011;55784;50.734;7.086;2023-08-20T13:25:34;12.70;;;9.45;;
68800;SDS011;55784;50.734;7.086;2023-08-20T13:28:00;12.80;;;9.60;;
68800;SDS011;55784;50.734;7.086;2023-08-20T13:30:25;11.93;;;9.00;;
68800;SDS011;55784;50.734;7.086;2023-08-20T13:32:50;12.27;;;9.30;;
68800;SDS011;55784;50.734;7.086;2023-08-20T13:35:16;13.27;;;9.23;;
68800;SDS011;55784;50.734;7.086;2023-08-20T13:37:41;12.80;;;9.90;;
68800;SDS011;55784;50.734;7.086;2023-08-20T13:40:07;14.10;;;9.93;;
68800;SDS011;55784;50.734;7.086;2023-08-20T13:42:34;12.00;;;9.18;;
68800;SDS011;55784;50.734;7.086;2023-08-20T13:45:00;13.43;;;9.50;;
68800;SDS011;55784;50.734;7.086;2023-08-20T13:47:25;11.67;;;8.80;;
68800;SDS011;55784;50.734;7.086;2023-08-20T13:49:51;12.17;;;9.07;;
68800;SDS011;55784;50.734;7.086;2023-08-20T13:52:16;12.33;;;8.97;;
68800;SDS011;55784;50.734;7.086;2023-08-20T13:54:41;11.10;;;7.60;;
68800;SDS011;55784;50.734;7.086;2023-08-20T13:57:07;11.40;;;7.70;;
68800;SDS011;55784;50.734;7.086;2023-08-20T13:59:32;10.35;;;7.57;;
68800;SDS011;55784;50.734;7.086;2023-08-20T14:01:57;13.03;;;7.77;;
68800;SDS011;55784;50.734;7.086;2023-08-20T14:04:23;10.90;;;7.40;;
68800;SDS011;55784;50.734;7.086;2023-08-20T14:06:49;10.93;;;7.43;;
68800;SDS011;55784;50.734;7.086;2023-08-20T14:09:14;12.47;;;7.87;;
68800;SDS011;55784;50.734;7.086;2023-08-20T14:11:42;13.17;;;8.30;;
68800;SDS011;55784;50.734;7.086;2023-08-20T14:14:07;12.68;;;8.18;;
68800;SDS011;55784;50.734;7.086;2023-08-20T14:16:32;12.83;;;7.43;;
68800;SDS011;55784;50.734;7.086;2023-08-20T14:18:58;12.90;;;8.03;;
68800;SDS011;55784;50.734;7.086;2023-08-20T14:21:23;11.43;;;7.97;;
68800;SDS011;55784;50.734;7.086;2023-08-20T14:23:48;10.90;;;7.60;;
68800;SDS011;55784;50.734;7.086;2023-08-20T14:26:14;12.10;;;7.43;;
68800;SDS011;55784;50.734;7.086;2023-08-20T14:28:40;11.68;;;7.13;;
68800;SDS011;55784;50.734;7.086;2023-08-20T14:31:08;11.25;;;7.18;;
68800;SDS011;55784;50.734;7.086;2023-08-20T14:33:33;11.03;;;7.60;;
68800;SDS011;55784;50.734;7.086;2023-08-20T14:35:59;14.60;;;7.43;;
68800;SDS011;55784;50.734;7.086;2023-08-20T14:38:24;10.93;;;7.97;;
68800;SDS011;55784;50.734;7.086;2023-08-20T14:40:49;12.43;;;7.53;;
68800;SDS011;55784;50.734;7.086;2023-08-20T14:43:15;11.50;;;7.23;;
68800;SDS011;55784;50.734;7.086;2023-08-20T14:45:40;10.40;;;7.00;;
68800;SDS011;55784;50.734;7.086;2023-08-20T14:48:05;11.50;;;6.90;;
68800;SDS011;55784;50.734;7.086;2023-08-20T14:50:31;10.23;;;6.83;;